sensor_id;sensor_type;location;lat;lon;timestamp;pressure;altitude;pressure_sealevel;temperature;humidity
70555;BME280;58104;52.744;15.242;2024-03-07T00:02:19;101946.24;;;17.86;48.54
70555;BME280;58104;52.744;15.242;2024-03-07T00:04:44;101946.47;;;17.97;47.67
70555;BME280;58104;52.744;15.242;2024-03-07T00:07:10;101947.46;;;17.82;48.12
70555;BME280;58104;52.744;15.242;2024-03-07T00:09:36;101946.95;;;18.05;47.38
70555;BME280;58104;52.744;15.242;2024-03-07T00:12:01;101948.65;;;18.02;47.64
70555;BME280;58104;52.744;15.242;2024-03-07T00:14:27;101950.64;;;18.04;47.78
70555;BME280;58104;52.744;15.242;2024-03-07T00:16:52;101951.57;;;18.18;47.84
70555;BME280;58104;52.744;15.242;2024-03-07T00:19:18;101950.10;;;18.15;47.38
70555;BME280;58104;52.744;15.242;2024-03-07T00:21:44;101951.68;;;18.01;47.71
70555;BME280;58104;52.744;15.242;2024-03-07T00:24:09;101948.69;;;17.95;48.38
70555;BME280;58104;52.744;15.242;2024-03-07T00:26:35;101948.17;;;17.95;48.64
70555;BME280;58104;52.744;15.242;2024-03-07T00:29:01;101948.51;;;17.93;48.71
70555;BME280;58104;52.744;15.242;2024-03-07T00:31:26;101948.11;;;17.86;48.43
70555;BME280;58104;52.744;15.242;2024-03-07T00:33:51;101944.76;;;17.92;49.17
70555;BME280;58104;52.744;15.242;2024-03-07T00:36:17;101944.91;;;17.73;48.97
70555;BME280;58104;52.744;15.242;2024-03-07T00:38:42;101947.29;;;17.78;49.18
70555;BME280;58104;52.744;15.242;2024-03-07T00:41:08;101944.06;;;17.83;49.32
70555;BME280;58104;52.744;15.242;2024-03-07T00:43:33;101945.35;;;17.80;47.86
70555;BME280;58104;52.744;15.242;2024-03-07T00:45:59;101942.85;;;17.91;47.72
70555;BME280;58104;52.744;15.242;2024-03-07T00:48:24;101943.85;;;17.81;48.59
70555;BME280;58104;52.744;15.242;2024-03-07T00:50:50;101942.25;;;17.72;47.52
70555;BME280;58104;52.744;15.242;2024-03-07T00:53:15;101944.75;;;17.64;48.31
70555;BME280;58104;52.744;15.242;2024-03-07T00:55:41;101946.23;;;17.66;48.59
70555;BME280;58104;52.744;15.242;2024-03-07T00:58:06;101948.84;;;17.63;48.23
70555;BME280;58104;52.744;15.242;2024-03-07T01:00:31;101947.86;;;17.59;48.49
70555;BME280;58104;52.744;15.242;2024-03-07T01:02:57;101947.35;;;17.57;49.27
70555;BME280;58104;52.744;15.242;2024-03-07T01:05:23;101942.65;;;17.52;48.09
70555;BME280;58104;52.744;15.242;2024-03-07T01:07:49;101942.44;;;17.47;48.61
70555;BME280;58104;52.744;15.242;2024-03-07T01:10:14;101944.61;;;17.52;49.04
70555;BME280;58104;52.744;15.242;2024-03-07T01:12:39;101941.57;;;17.46;48.22
70555;BME280;58104;52.744;15.242;2024-03-07T01:15:05;101941.11;;;17.33;48.78
70555;BME280;58104;52.744;15.242;2024-03-07T01:17:30;101942.82;;;17.38;49.05
70555;BME280;58104;52.744;15.242;2024-03-07T01:19:55;101941.96;;;17.40;48.69
70555;BME280;58104;52.744;15.242;2024-03-07T01:22:22;101939.86;;;17.44;48.64
70555;BME280;58104;52.744;15.242;2024-03-07T01:24:48;101942.63;;;17.42;48.37
70555;BME280;58104;52.744;15.242;2024-03-07T01:27:13;101943.77;;;17.42;48.92
70555;BME280;58104;52.744;15.242;2024-03-07T01:29:38;101940.70;;;17.33;48.58
70555;BME280;58104;52.744;15.242;2024-03-07T01:32:04;101942.60;;;17.39;48.53
70555;BME280;58104;52.744;15.242;2024-03-07T01:34:29;101944.87;;;17.33;48.82
70555;BME280;58104;52.744;15.242;2024-03-07T01:36:54;101948.06;;;17.36;48.73
70555;BME280;58104;52.744;15.242;2024-03-07T01:39:19;101948.79;;;17.39;48.81
70555;BME280;58104;52.744;15.242;2024-03-07T01:41:45;101949.89;;;17.35;48.46
70555;BME280;58104;52.744;15.242;2024-03-07T01:44:11;101950.39;;;17.31;49.17
70555;BME280;58104;52.744;15.242;2024-03-07T01:46:36;101950.42;;;17.30;48.93
70555;BME280;58104;52.744;15.242;2024-03-07T01:49:01;101951.06;;;17.32;48.70
70555;BME280;58104;52.744;15.242;2024-03-07T01:51:26;101951.97;;;17.28;49.17
70555;BME280;58104;52.744;15.242;2024-03-07T01:53:52;101953.70;;;17.31;48.72
70555;BME280;58104;52.744;15.242;2024-03-07T01:56:18;101953.83;;;17.39;48.73
70555;BME280;58104;52.744;15.242;2024-03-07T01:58:43;101951.62;;;17.26;49.25
70555;BME280;58104;52.744;15.242;2024-03-07T02:01:08;101951.97;;;17.35;49.17
70555;BME280;58104;52.744;15.242;2024-03-07T02:03:33;101954.64;;;17.26;48.57
70555;BME280;58104;52.744;15.242;2024-03-07T02:05:59;101951.50;;;17.32;49.14
70555;BME280;58104;52.744;15.242;2024-03-07T02:08:25;101953.89;;;17.32;48.35
70555;BME280;58104;52.744;15.242;2024-03-07T02:10:50;101954.08;;;17.21;48.87
70555;BME280;58104;52.744;15.242;2024-03-07T02:13:15;101951.58;;;17.14;48.75
70555;BME280;58104;52.744;15.242;2024-03-07T02:15:41;101951.46;;;17.14;48.40
70555;BME280;58104;52.744;15.242;2024-03-07T02:18:06;101951.34;;;17.12;49.26
70555;BME280;58104;52.744;15.242;2024-03-07T02:20:32;101953.73;;;17.20;48.93
70555;BME280;58104;52.744;15.242;2024-03-07T02:22:57;101952.31;;;17.08;49.10
70555;BME280;58104;52.744;15.242;2024-03-07T02:25:22;101950.54;;;17.19;49.20
70555;BME280;58104;52.744;15.242;2024-03-07T02:27:48;101948.67;;;17.14;49.13
70555;BME280;58104;52.744;15.242;2024-03-07T02:30:14;101948.06;;;17.12;48.95
70555;BME280;58104;52.744;15.242;2024-03-07T02:32:39;101947.46;;;17.10;48.67
70555;BME280;58104;52.744;15.242;2024-03-07T02:35:06;101943.52;;;17.14;49.19
70555;BME280;58104;52.744;15.242;2024-03-07T02:37:31;101944.50;;;17.11;49.54
70555;BME280;58104;52.744;15.242;2024-03-07T02:39:56;101946.32;;;17.11;49.59
70555;BME280;58104;52.744;15.242;2024-03-07T02:42:21;101944.72;;;17.14;49.11
70555;BME280;58104;52.744;15.242;2024-03-07T02:44:47;101945.29;;;17.11;49.43
70555;BME280;58104;52.744;15.242;2024-03-07T02:47:12;101944.47;;;17.09;49.28
70555;BME280;58104;52.744;15.242;2024-03-07T02:49:37;101945.60;;;17.12;48.68
70555;BME280;58104;52.744;15.242;2024-03-07T02:52:03;101940.84;;;17.17;48.76
70555;BME280;58104;52.744;15.242;2024-03-07T02:54:28;101941.60;;;17.15;49.04
70555;BME280;58104;52.744;15.242;2024-03-07T02:56:53;101938.31;;;17.11;49.48
70555;BME280;58104;52.744;15.242;2024-03-07T02:59:19;101937.71;;;17.07;49.28
70555;BME280;58104;52.744;15.242;2024-03-07T03:01:44;101935.61;;;17.09;49.29
70555;BME280;58104;52.744;15.242;2024-03-07T03:04:10;101934.61;;;17.16;49.16
70555;BME280;58104;52.744;15.242;2024-03-07T03:06:35;101936.52;;;17.10;48.94
70555;BME280;58104;52.744;15.242;2024-03-07T03:09:00;101937.18;;;17.03;49.00
70555;BME280;58104;52.744;15.242;2024-03-07T03:11:26;101938.73;;;17.12;48.75
70555;BME280;58104;52.744;15.242;2024-03-07T03:13:51;101939.84;;;17.00;49.22
70555;BME280;58104;52.744;15.242;2024-03-07T03:16:16;101939.28;;;16.97;48.95
70555;BME280;58104;52.744;15.242;2024-03-07T03:18:41;101933.79;;;17.03;48.37
70555;BME280;58104;52.744;15.242;2024-03-07T03:21:07;101938.15;;;17.06;48.62
70555;BME280;58104;52.744;15.242;2024-03-07T03:23:32;101939.46;;;16.96;49.06
70555;BME280;58104;52.744;15.242;2024-03-07T03:25:57;101943.86;;;16.84;49.48
70555;BME280;58104;52.744;15.242;2024-03-07T03:28:23;101941.29;;;16.92;48.29
70555;BME280;58104;52.744;15.242;2024-03-07T03:30:48;101944.20;;;16.89;48.87
70555;BME280;58104;52.744;15.242;2024-03-07T03:33:14;101943.59;;;16.92;48.95
70555;BME280;58104;52.744;15.242;2024-03-07T03:35:39;101942.85;;;16.92;48.73
70555;BME280;58104;52.744;15.242;2024-03-07T03:38:05;101945.01;;;17.02;49.10
70555;BME280;58104;52.744;15.242;2024-03-07T03:40:30;101943.37;;;16.94;49.19
70555;BME280;58104;52.744;15.242;2024-03-07T03:42:55;101945.52;;;16.96;49.28
70555;BME280;58104;52.744;15.242;2024-03-07T03:45:21;101945.56;;;16.91;49.12
70555;BME280;58104;52.744;15.242;2024-03-07T03:47:47;101942.89;;;16.93;49.09
70555;BME280;58104;52.744;15.242;2024-03-07T03:50:13;101943.94;;;17.00;49.07
70555;BME280;58104;52.744;15.242;2024-03-07T03:52:38;101940.26;;;16.92;49.28
70555;BME280;58104;52.744;15.242;2024-03-07T03:55:05;101942.78;;;16.98;49.72
70555;BME280;58104;52.744;15.242;2024-03-07T03:57:29;101940.67;;;16.92;49.34
70555;BME280;58104;52.744;15.242;2024-03-07T03:59:53;101942.46;;;16.98;48.62
70555;BME280;58104;52.744;15.242;2024-03-07T04:02:19;101942.92;;;16.97;49.00
70555;BME280;58104;52.744;15.242;2024-03-07T04:04:44;101944.40;;;16.95;48.76
70555;BME280;58104;52.744;15.242;2024-03-07T04:07:09;101945.24;;;16.85;48.32
70555;BME280;58104;52.744;15.242;2024-03-07T04:09:35;101948.57;;;16.89;48.59
70555;BME280;58104;52.744;15.242;2024-03-07T04:12:00;101949.01;;;16.88;48.80
70555;BME280;58104;52.744;15.242;2024-03-07T04:14:26;101950.93;;;16.85;49.07
70555;BME280;58104;52.744;15.242;2024-03-07T04:16:51;101948.72;;;16.86;48.35
70555;BME280;58104;52.744;15.242;2024-03-07T04:19:17;101946.88;;;16.82;48.79
70555;BME280;58104;52.744;15.242;2024-03-07T04:21:42;101943.65;;;16.87;48.91
70555;BME280;58104;52.744;15.242;2024-03-07T04:24:07;101946.51;;;16.77;49.07
70555;BME280;58104;52.744;15.242;2024-03-07T04:26:33;101948.41;;;16.81;49.10
70555;BME280;58104;52.744;15.242;2024-03-07T04:28:58;101949.03;;;16.73;49.31
70555;BME280;58104;52.744;15.242;2024-03-07T04:31:24;101951.43;;;16.83;49.09
70555;BME280;58104;52.744;15.242;2024-03-07T04:33:49;101951.80;;;16.88;49.08
70555;BME280;58104;52.744;15.242;2024-03-07T04:36:15;101951.77;;;16.83;48.47
70555;BME280;58104;52.744;15.242;2024-03-07T04:38:40;101951.25;;;16.81;48.91
70555;BME280;58104;52.744;15.242;2024-03-07T04:41:06;101952.65;;;16.80;48.66
70555;BME280;58104;52.744;15.242;2024-03-07T04:43:31;101952.20;;;16.67;49.08
70555;BME280;58104;52.744;15.242;2024-03-07T04:45:57;101955.43;;;16.68;49.56
70555;BME280;58104;52.744;15.242;2024-03-07T04:48:22;101955.00;;;16.74;49.80
70555;BME280;58104;52.744;15.242;2024-03-07T04:50:47;101955.28;;;16.77;49.37
70555;BME280;58104;52.744;15.242;2024-03-07T04:53:13;101956.08;;;16.79;49.42
70555;BME280;58104;52.744;15.242;2024-03-07T04:55:39;101953.53;;;16.66;49.06
70555;BME280;58104;52.744;15.242;2024-03-07T04:58:05;101953.81;;;16.78;49.81
70555;BME280;58104;52.744;15.242;2024-03-07T05:00:30;101953.42;;;16.72;49.01
70555;BME280;58104;52.744;15.242;2024-03-07T05:02:55;101955.38;;;16.66;48.66
70555;BME280;58104;52.744;15.242;2024-03-07T05:05:21;101954.96;;;16.73;49.26
70555;BME280;58104;52.744;15.242;2024-03-07T05:07:46;101959.24;;;16.66;49.48
70555;BME280;58104;52.744;15.242;2024-03-07T05:10:13;101962.09;;;16.71;49.57
70555;BME280;58104;52.744;15.242;2024-03-07T05:12:38;101967.11;;;16.81;49.08
70555;BME280;58104;52.744;15.242;2024-03-07T05:15:05;101968.78;;;16.68;48.65
70555;BME280;58104;52.744;15.242;2024-03-07T05:17:29;101968.97;;;16.78;49.17
70555;BME280;58104;52.744;15.242;2024-03-07T05:19:54;101968.12;;;16.71;49.11
70555;BME280;58104;52.744;15.242;2024-03-07T05:22:22;101970.17;;;16.71;49.30
70555;BME280;58104;52.744;15.242;2024-03-07T05:24:45;101967.59;;;16.73;49.02
70555;BME280;58104;52.744;15.242;2024-03-07T05:27:11;101970.82;;;16.74;49.28
70555;BME280;58104;52.744;15.242;2024-03-07T05:29:36;101970.47;;;16.73;48.44
70555;BME280;58104;52.744;15.242;2024-03-07T05:34:27;101970.46;;;16.64;48.38
70555;BME280;58104;52.744;15.242;2024-03-07T05:36:52;101972.19;;;16.69;49.05
70555;BME280;58104;52.744;15.242;2024-03-07T05:39:17;101972.25;;;16.64;48.89
70555;BME280;58104;52.744;15.242;2024-03-07T05:41:44;101976.07;;;16.62;49.35
70555;BME280;58104;52.744;15.242;2024-03-07T05:44:08;101977.61;;;16.62;48.99
70555;BME280;58104;52.744;15.242;2024-03-07T05:46:36;101978.23;;;16.64;48.86
70555;BME280;58104;52.744;15.242;2024-03-07T05:48:59;101985.00;;;16.59;49.38
70555;BME280;58104;52.744;15.242;2024-03-07T05:51:25;101986.21;;;16.61;48.68
70555;BME280;58104;52.744;15.242;2024-03-07T05:53:50;101989.16;;;16.55;48.73
70555;BME280;58104;52.744;15.242;2024-03-07T05:56:15;101987.83;;;16.60;49.19
70555;BME280;58104;52.744;15.242;2024-03-07T05:58:40;101991.23;;;16.59;49.27
70555;BME280;58104;52.744;15.242;2024-03-07T06:01:06;101995.16;;;16.56;49.03
70555;BME280;58104;52.744;15.242;2024-03-07T06:03:32;101997.16;;;16.97;48.08
70555;BME280;58104;52.744;15.242;2024-03-07T06:05:57;102001.34;;;17.20;48.45
70555;BME280;58104;52.744;15.242;2024-03-07T06:08:23;102002.35;;;17.38;47.42
70555;BME280;58104;52.744;15.242;2024-03-07T06:10:49;102000.92;;;17.29;47.19
70555;BME280;58104;52.744;15.242;2024-03-07T06:13:15;102001.15;;;17.37;47.41
70555;BME280;58104;52.744;15.242;2024-03-07T06:15:39;102004.83;;;17.45;48.02
70555;BME280;58104;52.744;15.242;2024-03-07T06:18:04;102005.22;;;17.53;47.98
70555;BME280;58104;52.744;15.242;2024-03-07T06:20:30;102006.60;;;17.50;47.51
70555;BME280;58104;52.744;15.242;2024-03-07T06:22:56;102008.12;;;17.62;47.50
70555;BME280;58104;52.744;15.242;2024-03-07T06:25:21;102008.13;;;17.53;48.32
70555;BME280;58104;52.744;15.242;2024-03-07T06:27:46;102007.46;;;17.62;45.91
70555;BME280;58104;52.744;15.242;2024-03-07T06:30:12;102010.02;;;17.64;45.44
70555;BME280;58104;52.744;15.242;2024-03-07T06:32:37;102014.51;;;17.71;44.06
70555;BME280;58104;52.744;15.242;2024-03-07T06:35:03;102016.90;;;17.78;45.41
70555;BME280;58104;52.744;15.242;2024-03-07T06:37:27;102018.23;;;17.91;44.83
70555;BME280;58104;52.744;15.242;2024-03-07T06:39:53;102020.32;;;17.83;45.86
70555;BME280;58104;52.744;15.242;2024-03-07T06:42:18;102022.45;;;17.85;45.09
70555;BME280;58104;52.744;15.242;2024-03-07T06:44:44;102023.37;;;17.91;46.73
70555;BME280;58104;52.744;15.242;2024-03-07T06:47:09;102026.64;;;18.03;46.72
70555;BME280;58104;52.744;15.242;2024-03-07T06:49:35;102029.38;;;18.09;46.55
70555;BME280;58104;52.744;15.242;2024-03-07T06:52:00;102030.41;;;18.19;46.26
70555;BME280;58104;52.744;15.242;2024-03-07T06:54:26;102027.83;;;18.26;46.63
70555;BME280;58104;52.744;15.242;2024-03-07T06:56:51;102028.94;;;18.35;46.49
70555;BME280;58104;52.744;15.242;2024-03-07T06:59:17;102031.73;;;18.45;45.71
70555;BME280;58104;52.744;15.242;2024-03-07T07:01:42;102033.77;;;18.50;45.42
70555;BME280;58104;52.744;15.242;2024-03-07T07:04:08;102035.08;;;18.57;43.25
70555;BME280;58104;52.744;15.242;2024-03-07T07:06:33;102037.64;;;18.52;44.53
70555;BME280;58104;52.744;15.242;2024-03-07T07:08:58;102041.00;;;18.54;44.73
70555;BME280;58104;52.744;15.242;2024-03-07T07:11:24;102045.57;;;18.66;44.95
70555;BME280;58104;52.744;15.242;2024-03-07T07:13:49;102044.99;;;18.73;45.03
70555;BME280;58104;52.744;15.242;2024-03-07T07:16:15;102048.83;;;18.80;44.37
70555;BME280;58104;52.744;15.242;2024-03-07T07:18:39;102048.75;;;18.91;44.54
70555;BME280;58104;52.744;15.242;2024-03-07T07:21:05;102048.23;;;18.90;44.28
70555;BME280;58104;52.744;15.242;2024-03-07T07:23:30;102050.27;;;18.89;44.20
70555;BME280;58104;52.744;15.242;2024-03-07T07:25:55;102052.57;;;18.99;44.50
70555;BME280;58104;52.744;15.242;2024-03-07T07:28:21;102054.79;;;19.10;43.71
70555;BME280;58104;52.744;15.242;2024-03-07T07:30:46;102057.97;;;19.09;43.80
70555;BME280;58104;52.744;15.242;2024-03-07T07:33:11;102056.14;;;19.16;43.55
70555;BME280;58104;52.744;15.242;2024-03-07T07:35:37;102052.98;;;19.36;42.98
70555;BME280;58104;52.744;15.242;2024-03-07T07:38:02;102058.84;;;19.39;43.26
70555;BME280;58104;52.744;15.242;2024-03-07T07:40:27;102057.62;;;19.50;42.72
70555;BME280;58104;52.744;15.242;2024-03-07T07:42:53;102059.47;;;19.60;42.62
70555;BME280;58104;52.744;15.242;2024-03-07T07:45:19;102057.36;;;19.66;42.55
70555;BME280;58104;52.744;15.242;2024-03-07T07:47:45;102062.10;;;19.63;42.74
70555;BME280;58104;52.744;15.242;2024-03-07T07:50:10;102062.07;;;19.77;42.69
70555;BME280;58104;52.744;15.242;2024-03-07T07:52:34;102061.80;;;19.80;42.41
70555;BME280;58104;52.744;15.242;2024-03-07T07:55:00;102061.45;;;19.83;42.26
70555;BME280;58104;52.744;15.242;2024-03-07T07:57:26;102062.03;;;19.88;42.03
70555;BME280;58104;52.744;15.242;2024-03-07T07:59:51;102057.97;;;20.09;41.16
70555;BME280;58104;52.744;15.242;2024-03-07T08:02:17;102063.28;;;20.09;41.38
70555;BME280;58104;52.744;15.242;2024-03-07T08:04:43;102065.93;;;20.18;41.84
70555;BME280;58104;52.744;15.242;2024-03-07T08:07:08;102066.89;;;20.28;41.44
70555;BME280;58104;52.744;15.242;2024-03-07T08:09:34;102065.24;;;20.36;40.93
70555;BME280;58104;52.744;15.242;2024-03-07T08:12:02;102068.82;;;20.40;41.48
70555;BME280;58104;52.744;15.242;2024-03-07T08:14:25;102068.67;;;20.52;40.64
70555;BME280;58104;52.744;15.242;2024-03-07T08:16:50;102072.21;;;20.55;40.97
70555;BME280;58104;52.744;15.242;2024-03-07T08:19:16;102072.33;;;20.65;41.61
70555;BME280;58104;52.744;15.242;2024-03-07T08:21:41;102072.76;;;20.72;41.52
70555;BME280;58104;52.744;15.242;2024-03-07T08:24:07;102074.10;;;20.87;40.76
70555;BME280;58104;52.744;15.242;2024-03-07T08:26:32;102074.78;;;20.98;41.01
70555;BME280;58104;52.744;15.242;2024-03-07T08:28:57;102076.84;;;21.04;40.72
70555;BME280;58104;52.744;15.242;2024-03-07T08:31:22;102077.38;;;21.17;40.56
70555;BME280;58104;52.744;15.242;2024-03-07T08:33:47;102077.06;;;21.23;40.28
70555;BME280;58104;52.744;15.242;2024-03-07T08:36:13;102073.64;;;21.30;40.35
70555;BME280;58104;52.744;15.242;2024-03-07T08:38:38;102077.86;;;21.49;39.97
70555;BME280;58104;52.744;15.242;2024-03-07T08:41:03;102079.73;;;21.53;39.97
70555;BME280;58104;52.744;15.242;2024-03-07T08:43:28;102078.88;;;21.82;39.51
70555;BME280;58104;52.744;15.242;2024-03-07T08:45:53;102076.96;;;21.84;39.19
70555;BME280;58104;52.744;15.242;2024-03-07T08:48:19;102076.54;;;21.90;39.06
70555;BME280;58104;52.744;15.242;2024-03-07T08:50:44;102073.84;;;22.18;37.30
70555;BME280;58104;52.744;15.242;2024-03-07T08:53:09;102073.34;;;22.30;36.66
70555;BME280;58104;52.744;15.242;2024-03-07T08:55:34;102068.86;;;22.42;36.68
70555;BME280;58104;52.744;15.242;2024-03-07T08:57:59;102072.60;;;22.57;37.31
70555;BME280;58104;52.744;15.242;2024-03-07T09:00:26;102071.97;;;22.59;36.78
70555;BME280;58104;52.744;15.242;2024-03-07T09:02:51;102074.23;;;22.72;36.25
70555;BME280;58104;52.744;15.242;2024-03-07T09:05:15;102072.08;;;22.80;37.16
70555;BME280;58104;52.744;15.242;2024-03-07T09:07:41;102069.88;;;22.90;36.68
70555;BME280;58104;52.744;15.242;2024-03-07T09:10:07;102070.34;;;22.99;36.76
70555;BME280;58104;52.744;15.242;2024-03-07T09:12:31;102066.73;;;23.17;35.93
70555;BME280;58104;52.744;15.242;2024-03-07T09:14:56;102065.72;;;23.13;36.52
70555;BME280;58104;52.744;15.242;2024-03-07T09:17:23;102067.11;;;23.33;36.27
70555;BME280;58104;52.744;15.242;2024-03-07T09:19:48;102066.41;;;23.42;36.03
70555;BME280;58104;52.744;15.242;2024-03-07T09:22:13;102067.36;;;23.65;34.95
70555;BME280;58104;52.744;15.242;2024-03-07T09:24:38;102066.82;;;23.88;34.79
70555;BME280;58104;52.744;15.242;2024-03-07T09:27:04;102061.27;;;24.01;34.83
70555;BME280;58104;52.744;15.242;2024-03-07T09:29:28;102063.36;;;24.29;34.40
70555;BME280;58104;52.744;15.242;2024-03-07T09:31:54;102063.69;;;24.40;34.45
70555;BME280;58104;52.744;15.242;2024-03-07T09:34:20;102056.31;;;24.49;34.06
70555;BME280;58104;52.744;15.242;2024-03-07T09:36:46;102061.27;;;24.73;33.44
70555;BME280;58104;52.744;15.242;2024-03-07T09:39:10;102059.28;;;25.01;33.21
70555;BME280;58104;52.744;15.242;2024-03-07T09:41:35;102055.08;;;25.15;32.60
70555;BME280;58104;52.744;15.242;2024-03-07T09:44:01;102059.92;;;25.39;32.60
70555;BME280;58104;52.744;15.242;2024-03-07T09:46:25;102062.09;;;25.64;32.37
70555;BME280;58104;52.744;15.242;2024-03-07T09:48:51;102059.20;;;25.77;32.07
70555;BME280;58104;52.744;15.242;2024-03-07T09:51:18;102059.30;;;26.04;31.68
70555;BME280;58104;52.744;15.242;2024-03-07T09:53:42;102049.95;;;26.47;30.99
70555;BME280;58104;52.744;15.242;2024-03-07T09:56:07;102048.31;;;26.71;30.63
70555;BME280;58104;52.744;15.242;2024-03-07T09:58:32;102046.26;;;26.99;30.30
70555;BME280;58104;52.744;15.242;2024-03-07T10:00:58;102047.42;;;27.33;29.56
70555;BME280;58104;52.744;15.242;2024-03-07T10:03:23;102048.36;;;27.53;29.60
70555;BME280;58104;52.744;15.242;2024-03-07T10:05:47;102050.57;;;28.08;28.83
70555;BME280;58104;52.744;15.242;2024-03-07T10:08:13;102049.84;;;28.47;28.25
70555;BME280;58104;52.744;15.242;2024-03-07T10:10:38;102044.55;;;28.87;27.82
70555;BME280;58104;52.744;15.242;2024-03-07T10:13:05;102048.89;;;29.37;27.13
70555;BME280;58104;52.744;15.242;2024-03-07T10:15:29;102050.19;;;29.73;26.64
70555;BME280;58104;52.744;15.242;2024-03-07T10:17:54;102048.22;;;30.19;26.05
70555;BME280;58104;52.744;15.242;2024-03-07T10:20:19;102045.02;;;30.68;25.53
70555;BME280;58104;52.744;15.242;2024-03-07T10:22:44;102051.91;;;30.90;25.04
70555;BME280;58104;52.744;15.242;2024-03-07T10:25:10;102047.15;;;30.83;25.15
70555;BME280;58104;52.744;15.242;2024-03-07T10:27:36;102056.99;;;30.94;25.12
70555;BME280;58104;52.744;15.242;2024-03-07T10:30:00;102045.20;;;30.91;25.17
70555;BME280;58104;52.744;15.242;2024-03-07T10:32:25;102037.27;;;30.89;25.13
70555;BME280;58104;52.744;15.242;2024-03-07T10:34:51;102036.65;;;30.99;25.02
70555;BME280;58104;52.744;15.242;2024-03-07T10:37:16;102034.13;;;30.91;24.99
70555;BME280;58104;52.744;15.242;2024-03-07T10:39:43;102027.17;;;30.89;24.99
70555;BME280;58104;52.744;15.242;2024-03-07T10:42:07;102023.75;;;30.95;25.07
70555;BME280;58104;52.744;15.242;2024-03-07T10:44:37;102020.57;;;31.00;24.92
70555;BME280;58104;52.744;15.242;2024-03-07T10:46:58;102018.87;;;31.20;24.72
70555;BME280;58104;52.744;15.242;2024-03-07T10:49:25;102017.24;;;31.09;24.75
70555;BME280;58104;52.744;15.242;2024-03-07T10:52:01;102016.05;;;31.18;24.70
70555;BME280;58104;52.744;15.242;2024-03-07T10:54:20;102013.91;;;31.37;24.46
70555;BME280;58104;52.744;15.242;2024-03-07T10:56:47;102009.96;;;31.57;24.23
70555;BME280;58104;52.744;15.242;2024-03-07T10:59:14;102004.41;;;31.57;24.21
70555;BME280;58104;52.744;15.242;2024-03-07T11:01:31;102006.75;;;31.48;24.29
70555;BME280;58104;52.744;15.242;2024-03-07T11:03:55;102004.76;;;31.46;24.26
70555;BME280;58104;52.744;15.242;2024-03-07T11:06:20;102003.07;;;31.59;24.10
70555;BME280;58104;52.744;15.242;2024-03-07T11:08:46;101998.10;;;31.63;24.04
70555;BME280;58104;52.744;15.242;2024-03-07T11:11:11;101995.42;;;31.82;23.93
70555;BME280;58104;52.744;15.242;2024-03-07T11:13:38;101993.98;;;31.83;23.70
70555;BME280;58104;52.744;15.242;2024-03-07T11:16:01;101997.57;;;31.80;23.93
70555;BME280;58104;52.744;15.242;2024-03-07T11:18:26;101991.22;;;31.76;23.86
70555;BME280;58104;52.744;15.242;2024-03-07T11:20:51;101982.33;;;31.79;23.80
70555;BME280;58104;52.744;15.242;2024-03-07T11:23:25;101978.56;;;31.45;24.15
70555;BME280;58104;52.744;15.242;2024-03-07T11:25:42;101980.80;;;31.63;23.99
70555;BME280;58104;52.744;15.242;2024-03-07T11:28:07;101977.52;;;31.56;24.00
70555;BME280;58104;52.744;15.242;2024-03-07T11:30:33;101977.16;;;31.76;23.72
70555;BME280;58104;52.744;15.242;2024-03-07T11:33:02;101973.63;;;31.66;23.88
70555;BME280;58104;52.744;15.242;2024-03-07T11:35:32;101973.58;;;31.79;23.67
70555;BME280;58104;52.744;15.242;2024-03-07T11:37:49;101967.85;;;31.66;23.82
70555;BME280;58104;52.744;15.242;2024-03-07T11:42:44;101964.29;;;31.68;23.74
70555;BME280;58104;52.744;15.242;2024-03-07T11:45:06;101962.84;;;31.58;23.89
70555;BME280;58104;52.744;15.242;2024-03-07T11:47:35;101959.97;;;31.39;23.96
70555;BME280;58104;52.744;15.242;2024-03-07T11:49:56;101959.82;;;31.19;24.25
70555;BME280;58104;52.744;15.242;2024-03-07T11:52:20;101958.03;;;30.98;24.43
70555;BME280;58104;52.744;15.242;2024-03-07T11:54:46;101948.55;;;31.22;24.21
70555;BME280;58104;52.744;15.242;2024-03-07T11:57:11;101949.44;;;31.02;24.40
70555;BME280;58104;52.744;15.242;2024-03-07T11:59:37;101948.46;;;31.01;24.34
70555;BME280;58104;52.744;15.242;2024-03-07T12:02:03;101946.40;;;31.08;24.30
70555;BME280;58104;52.744;15.242;2024-03-07T12:04:27;101947.07;;;30.87;24.52
70555;BME280;58104;52.744;15.242;2024-03-07T12:06:53;101941.81;;;31.00;24.43
70555;BME280;58104;52.744;15.242;2024-03-07T12:09:18;101938.41;;;30.95;24.37
70555;BME280;58104;52.744;15.242;2024-03-07T12:11:45;101933.63;;;30.97;24.38
70555;BME280;58104;52.744;15.242;2024-03-07T12:14:09;101934.44;;;30.86;24.48
70555;BME280;58104;52.744;15.242;2024-03-07T12:16:34;101931.29;;;30.71;24.61
70555;BME280;58104;52.744;15.242;2024-03-07T12:18:59;101931.15;;;30.59;24.72
70555;BME280;58104;52.744;15.242;2024-03-07T12:21:25;101924.70;;;30.90;24.35
70555;BME280;58104;52.744;15.242;2024-03-07T12:23:50;101926.16;;;30.40;24.88
70555;BME280;58104;52.744;15.242;2024-03-07T12:26:20;101925.34;;;30.48;24.76
70555;BME280;58104;52.744;15.242;2024-03-07T12:28:40;101923.50;;;30.43;24.77
70555;BME280;58104;52.744;15.242;2024-03-07T12:31:05;101920.22;;;30.39;24.83
70555;BME280;58104;52.744;15.242;2024-03-07T12:33:31;101917.71;;;30.30;24.92
70555;BME280;58104;52.744;15.242;2024-03-07T12:35:56;101911.17;;;30.23;24.99